Time;durP1;ratioP1;P1;durP2;ratioP2;P2;SDS_P1;SDS_P2;PMS_P1;PMS_P2;Temp;Humidity;BMP_temperature;BMP_pressure;BME280_temperature;BME280_humidity;BME280_pressure;Samples;Min_cycle;Max_cycle;Signal;HPM_P1;HPM_P2
2021/06/27 00:01:26;;;;;;;9.25;7.78;;;17.00;99.90;;;;;;5110736;28;20027;-41
2021/06/27 00:03:53;;;;;;;11.18;7.63;;;16.90;99.90;;;;;;5111127;28;20034;-42
2021/06/27 00:06:19;;;;;;;9.02;7.60;;;16.90;99.90;;;;;;5106343;28;20020;-42
2021/06/27 00:08:44;;;;;;;10.10;7.85;;;16.90;99.90;;;;;;5093912;28;20107;-42
2021/06/27 00:11:11;;;;;;;12.32;8.00;;;16.90;99.90;;;;;;5107119;28;20293;-42
2021/06/27 00:13:39;;;;;;;10.65;8.23;;;16.90;99.90;;;;;;5102575;28;20488;-42
2021/06/27 00:16:05;;;;;;;9.73;8.40;;;16.90;99.90;;;;;;5110921;28;20047;-41
2021/06/27 00:18:32;;;;;;;8.95;7.75;;;16.90;99.90;;;;;;5108606;28;20528;-41
2021/06/27 00:21:00;;;;;;;8.57;7.43;;;16.80;99.90;;;;;;5094930;28;20024;-41
2021/06/27 00:23:29;;;;;;;10.05;8.00;;;16.80;99.90;;;;;;5110906;28;20027;-41
2021/06/27 00:25:56;;;;;;;9.13;8.13;;;16.70;99.90;;;;;;5111002;28;20049;-41
2021/06/27 00:28:21;;;;;;;8.52;7.38;;;16.70;99.90;;;;;;5110815;28;20448;-41
2021/06/27 00:30:49;;;;;;;8.82;7.03;;;16.70;99.90;;;;;;5109892;28;20099;-41
2021/06/27 00:33:15;;;;;;;9.18;7.25;;;16.60;99.90;;;;;;5110255;28;20111;-41
2021/06/27 00:35:41;;;;;;;8.10;7.30;;;16.60;99.90;;;;;;5110508;28;20435;-41
2021/06/27 00:38:07;;;;;;;9.90;7.28;;;16.50;99.90;;;;;;5093242;28;20112;-41
2021/06/27 00:40:33;;;;;;;8.93;7.10;;;16.50;99.90;;;;;;5102988;28;20405;-42
2021/06/27 00:42:59;;;;;;;8.13;7.30;;;16.50;99.90;;;;;;5109402;28;20468;-42
2021/06/27 00:45:27;;;;;;;8.60;7.70;;;16.40;99.90;;;;;;5110262;28;20038;-42
2021/06/27 00:47:52;;;;;;;10.05;8.60;;;16.40;99.90;;;;;;5110153;28;20054;-42
2021/06/27 00:50:22;;;;;;;9.57;8.15;;;16.30;99.90;;;;;;5109364;28;20541;-42
2021/06/27 00:52:48;;;;;;;9.40;8.30;;;16.30;99.90;;;;;;5109903;28;20072;-42
2021/06/27 00:55:15;;;;;;;11.60;8.20;;;16.30;99.90;;;;;;5110451;28;20435;-42
2021/06/27 00:57:43;;;;;;;9.80;8.30;;;16.30;99.90;;;;;;5109871;28;20169;-42
2021/06/27 01:00:12;;;;;;;9.68;7.93;;;16.40;99.90;;;;;;5109401;28;20160;-42
2021/06/27 01:02:38;;;;;;;8.63;7.72;;;16.30;99.90;;;;;;5110112;28;20023;-42
2021/06/27 01:05:07;;;;;;;10.10;8.25;;;16.30;99.90;;;;;;5108698;28;20043;-42
2021/06/27 01:07:32;;;;;;;9.40;8.23;;;16.30;99.90;;;;;;5095409;28;20477;-42
2021/06/27 01:09:58;;;;;;;10.52;8.02;;;16.30;99.90;;;;;;5100915;28;20185;-41
2021/06/27 01:12:23;;;;;;;9.75;8.13;;;16.30;99.90;;;;;;5109727;28;20111;-41
2021/06/27 01:14:49;;;;;;;11.75;7.93;;;16.30;99.90;;;;;;5109593;28;20019;-41
2021/06/27 01:17:15;;;;;;;11.02;8.60;;;16.30;99.90;;;;;;5108450;28;20064;-41
2021/06/27 01:19:40;;;;;;;10.85;8.02;;;16.30;99.90;;;;;;5109385;28;20031;-41
2021/06/27 01:22:06;;;;;;;11.73;7.65;;;16.30;99.90;;;;;;5109428;28;20020;-41
2021/06/27 01:24:31;;;;;;;10.70;8.10;;;16.30;99.90;;;;;;5092225;28;20054;-41
2021/06/27 01:26:57;;;;;;;9.13;8.05;;;16.20;99.90;;;;;;5100916;28;20641;-41
2021/06/27 01:29:23;;;;;;;8.77;7.63;;;16.20;99.90;;;;;;5108735;28;20413;-41
2021/06/27 01:31:49;;;;;;;10.38;8.65;;;16.10;99.90;;;;;;5109597;28;20103;-41
2021/06/27 01:34:14;;;;;;;8.70;7.80;;;16.10;99.90;;;;;;5089186;28;20461;-41
2021/06/27 01:36:40;;;;;;;9.98;8.27;;;16.10;99.90;;;;;;5103294;28;20034;-41
2021/06/27 01:39:06;;;;;;;10.32;8.45;;;16.00;99.90;;;;;;5108968;28;20031;-41
2021/06/27 01:41:32;;;;;;;9.07;8.18;;;16.00;99.90;;;;;;5108676;28;20032;-41
2021/06/27 01:43:57;;;;;;;10.35;7.43;;;15.90;99.90;;;;;;5109119;28;20374;-41
2021/06/27 01:46:23;;;;;;;9.10;7.68;;;15.80;99.90;;;;;;5107993;28;20027;-41
2021/06/27 01:48:48;;;;;;;9.75;7.88;;;15.80;99.90;;;;;;5109149;28;20485;-41
2021/06/27 01:51:14;;;;;;;10.70;7.60;;;15.80;99.90;;;;;;5107238;28;20024;-42
2021/06/27 01:53:40;;;;;;;9.52;8.38;;;15.80;99.90;;;;;;5109483;28;20090;-41
2021/06/27 01:56:07;;;;;;;9.10;7.45;;;15.80;99.90;;;;;;5108108;28;20473;-41
2021/06/27 01:58:41;;;;;;;10.35;8.00;;;15.70;99.90;;;;;;5109398;28;20251;-41
2021/06/27 02:01:13;;;;;;;11.13;9.32;;;15.80;99.90;;;;;;5108533;28;20084;-41
2021/06/27 02:03:39;;;;;;;10.38;7.97;;;15.80;99.90;;;;;;5091245;28;20101;-42
2021/06/27 02:06:05;;;;;;;10.23;8.48;;;15.80;99.90;;;;;;5106681;28;20051;-42
2021/06/27 02:08:35;;;;;;;10.75;8.48;;;15.80;99.90;;;;;;5094712;28;20067;-42
2021/06/27 02:11:03;;;;;;;11.07;9.27;;;15.80;99.90;;;;;;5105400;28;20047;-41
2021/06/27 02:13:30;;;;;;;10.45;8.50;;;15.80;99.90;;;;;;5096534;28;20034;-41
2021/06/27 02:15:55;;;;;;;9.25;8.02;;;15.90;99.90;;;;;;5105422;28;20027;-41
2021/06/27 02:18:32;;;;;;;10.23;8.20;;;15.90;99.90;;;;;;5108015;28;20473;-41
2021/06/27 02:21:01;;;;;;;11.00;8.77;;;15.90;99.90;;;;;;5099348;28;20052;-41
2021/06/27 02:23:27;;;;;;;10.23;8.55;;;15.80;99.90;;;;;;5096313;28;20027;-41
2021/06/27 02:25:53;;;;;;;12.90;9.13;;;15.90;99.90;;;;;;5088339;28;20021;-41
2021/06/27 02:28:18;;;;;;;9.40;8.35;;;15.90;99.90;;;;;;5083134;28;20421;-41
2021/06/27 02:30:44;;;;;;;8.93;7.93;;;15.80;99.90;;;;;;5078065;28;20477;-41
2021/06/27 02:33:10;;;;;;;10.80;8.95;;;15.80;99.90;;;;;;5077390;28;20023;-41
2021/06/27 02:35:35;;;;;;;10.32;9.05;;;15.70;99.90;;;;;;5064756;28;20024;-41
2021/06/27 02:38:01;;;;;;;10.75;8.00;;;15.70;99.90;;;;;;5080435;28;20791;-41
2021/06/27 02:40:27;;;;;;;13.73;9.75;;;15.70;99.90;;;;;;5081910;28;20102;-41
2021/06/27 02:42:53;;;;;;;9.63;8.27;;;15.60;99.90;;;;;;5081738;28;20017;-41
2021/06/27 02:45:18;;;;;;;14.35;9.55;;;15.60;99.90;;;;;;5085194;28;20616;-41
2021/06/27 02:47:44;;;;;;;10.90;8.65;;;15.50;99.90;;;;;;5083792;28;20028;-41
2021/06/27 02:50:12;;;;;;;10.77;8.38;;;15.50;99.90;;;;;;5080579;28;20035;-41
2021/06/27 02:52:38;;;;;;;9.88;8.07;;;15.50;99.90;;;;;;5081807;28;20031;-41
2021/06/27 02:55:06;;;;;;;11.95;9.20;;;15.50;99.90;;;;;;5086970;28;20024;-41
2021/06/27 02:57:31;;;;;;;11.75;9.05;;;15.50;99.90;;;;;;5080322;28;20233;-41
2021/06/27 02:59:57;;;;;;;9.18;7.90;;;15.50;99.90;;;;;;5078205;28;20440;-41
2021/06/27 03:02:22;;;;;;;8.73;7.70;;;15.40;99.90;;;;;;5080419;28;20462;-41
2021/06/27 03:04:48;;;;;;;8.93;7.78;;;15.40;99.90;;;;;;5081920;28;20075;-41
2021/06/27 03:07:14;;;;;;;9.25;8.25;;;15.40;99.90;;;;;;5079930;28;20035;-41
2021/06/27 03:09:39;;;;;;;10.63;8.30;;;15.40;99.90;;;;;;5081321;28;20461;-41
2021/06/27 03:12:05;;;;;;;10.35;8.32;;;15.40;99.90;;;;;;5081083;28;20082;-41
2021/06/27 03:14:31;;;;;;;11.23;9.05;;;15.30;99.90;;;;;;5090954;28;20019;-41
2021/06/27 03:16:56;;;;;;;15.60;9.20;;;15.30;99.90;;;;;;5080379;28;20027;-40
2021/06/27 03:19:22;;;;;;;11.05;7.85;;;15.20;99.90;;;;;;5081155;28;20571;-39
2021/06/27 03:21:48;;;;;;;9.93;8.38;;;15.30;99.90;;;;;;5081238;28;20031;-41
2021/06/27 03:24:13;;;;;;;9.75;8.10;;;15.30;99.90;;;;;;5089086;28;20032;-40
2021/06/27 03:26:40;;;;;;;11.82;8.48;;;15.30;99.90;;;;;;5093929;28;20065;-41
2021/06/27 03:29:06;;;;;;;9.82;7.72;;;15.30;99.90;;;;;;5109433;28;20415;-41
2021/06/27 03:31:31;;;;;;;9.75;8.65;;;15.30;99.90;;;;;;5111890;28;20488;-41
2021/06/27 03:33:57;;;;;;;11.43;8.85;;;15.30;99.90;;;;;;5111653;28;20055;-41
2021/06/27 03:36:22;;;;;;;9.00;8.02;;;15.30;99.90;;;;;;5111629;28;20107;-41
2021/06/27 03:38:57;;;;;;;10.80;8.35;;;15.30;99.90;;;;;;5100571;28;20470;-41
2021/06/27 03:41:24;;;;;;;7.88;7.05;;;15.30;99.90;;;;;;5070364;28;20116;-42
2021/06/27 03:43:50;;;;;;;10.02;8.02;;;15.30;99.90;;;;;;5070948;28;20020;-42
2021/06/27 03:46:16;;;;;;;10.23;8.50;;;15.30;99.90;;;;;;5086381;28;20020;-42
2021/06/27 03:48:41;;;;;;;9.50;7.93;;;15.30;99.90;;;;;;5070400;28;20032;-43
2021/06/27 03:51:09;;;;;;;11.50;7.93;;;15.30;99.90;;;;;;5070166;28;20489;-41
2021/06/27 03:53:34;;;;;;;10.95;8.45;;;15.40;99.90;;;;;;5070646;28;20401;-41
2021/06/27 03:56:00;;;;;;;12.30;9.30;;;15.40;99.90;;;;;;5070533;28;20031;-41
2021/06/27 03:58:27;;;;;;;10.00;8.15;;;15.40;99.90;;;;;;5070595;28;20031;-41
2021/06/27 04:00:53;;;;;;;10.32;8.60;;;15.40;99.90;;;;;;5069901;28;20060;-42
2021/06/27 04:03:19;;;;;;;8.65;7.75;;;15.40;99.90;;;;;;5070523;28;20043;-42
2021/06/27 04:05:45;;;;;;;12.23;8.55;;;15.40;99.90;;;;;;5070506;28;20029;-42
2021/06/27 04:08:10;;;;;;;9.52;8.07;;;15.50;99.90;;;;;;5088618;28;20040;-42
2021/06/27 04:10:36;;;;;;;9.38;7.93;;;15.50;99.90;;;;;;5102383;28;20027;-42
2021/06/27 04:13:01;;;;;;;9.70;8.02;;;15.50;99.90;;;;;;5110907;28;20102;-42
2021/06/27 04:15:27;;;;;;;8.13;6.97;;;15.50;99.90;;;;;;5111348;28;20034;-42
2021/06/27 04:17:53;;;;;;;7.75;6.63;;;15.50;99.90;;;;;;5099479;28;20025;-41
2021/06/27 04:20:18;;;;;;;9.77;7.40;;;15.60;99.90;;;;;;5101056;28;20020;-42
2021/06/27 04:22:43;;;;;;;8.88;7.85;;;15.60;99.90;;;;;;5110865;28;20032;-42
2021/06/27 04:25:10;;;;;;;9.52;7.82;;;15.60;99.90;;;;;;5110950;28;20028;-42
2021/06/27 04:27:37;;;;;;;9.50;7.32;;;15.60;99.90;;;;;;5109031;28;20114;-41
2021/06/27 04:30:05;;;;;;;8.68;7.25;;;15.70;99.90;;;;;;5110038;28;20027;-41
2021/06/27 04:32:31;;;;;;;8.77;7.18;;;15.70;99.90;;;;;;5110628;28;20027;-40
2021/06/27 04:34:56;;;;;;;9.23;6.97;;;15.80;99.90;;;;;;5110630;28;20028;-40
2021/06/27 04:37:22;;;;;;;10.10;7.15;;;15.80;99.90;;;;;;5110165;28;20016;-41
2021/06/27 04:39:47;;;;;;;8.43;7.53;;;15.90;99.90;;;;;;5092870;28;20695;-41
2021/06/27 04:42:13;;;;;;;10.02;8.20;;;15.90;99.90;;;;;;5109326;28;20385;-42
2021/06/27 04:44:38;;;;;;;12.02;9.98;;;15.90;99.90;;;;;;5097489;28;20040;-43
2021/06/27 04:47:04;;;;;;;10.90;9.30;;;15.90;99.90;;;;;;5078637;28;20040;-42
2021/06/27 04:49:30;;;;;;;10.88;9.02;;;16.00;99.90;;;;;;5072026;28;20119;-42
2021/06/27 04:51:55;;;;;;;9.50;8.50;;;16.00;99.90;;;;;;5071574;28;20032;-42
2021/06/27 04:54:21;;;;;;;12.65;8.40;;;16.10;99.90;;;;;;5074841;28;20108;-42
2021/06/27 04:56:46;;;;;;;9.77;7.95;;;16.10;99.90;;;;;;5070677;28;20486;-42
2021/06/27 04:59:12;;;;;;;9.77;8.25;;;16.20;99.90;;;;;;5069674;28;20035;-43
2021/06/27 05:01:37;;;;;;;10.57;8.93;;;16.30;99.90;;;;;;5074078;28;20089;-42
2021/06/27 05:04:03;;;;;;;11.55;9.10;;;16.30;99.90;;;;;;5076794;28;20178;-42
2021/06/27 05:06:29;;;;;;;12.10;9.77;;;16.40;99.90;;;;;;5060561;28;20122;-42
2021/06/27 05:08:54;;;;;;;9.65;8.02;;;16.50;99.90;;;;;;5078711;28;20060;-42
2021/06/27 05:11:20;;;;;;;10.20;7.80;;;16.50;99.90;;;;;;5077641;28;20040;-42
2021/06/27 05:13:46;;;;;;;9.05;7.88;;;16.60;99.90;;;;;;5074536;28;20012;-43
2021/06/27 05:16:12;;;;;;;8.65;7.60;;;16.60;99.90;;;;;;5079594;28;20020;-40
2021/06/27 05:18:38;;;;;;;10.23;8.00;;;16.70;99.90;;;;;;5078972;28;20482;-41
2021/06/27 05:21:03;;;;;;;8.38;7.10;;;16.80;99.90;;;;;;5077895;28;20453;-41
2021/06/27 05:23:29;;;;;;;9.48;7.78;;;16.80;99.90;;;;;;5083763;28;20338;-41
2021/06/27 05:25:54;;;;;;;12.30;8.38;;;16.90;99.90;;;;;;5102586;28;20034;-40
2021/06/27 05:28:20;;;;;;;9.60;7.95;;;16.90;99.90;;;;;;5108544;28;20035;-40
2021/06/27 05:30:47;;;;;;;11.18;8.30;;;17.00;99.90;;;;;;5084935;28;20032;-40
2021/06/27 05:33:12;;;;;;;12.40;8.32;;;17.10;99.90;;;;;;5080398;28;20040;-40
2021/06/27 05:35:38;;;;;;;9.13;7.78;;;17.20;99.90;;;;;;5079697;28;20031;-41
2021/06/27 05:38:04;;;;;;;9.90;7.63;;;17.30;99.90;;;;;;5076387;28;20032;-40
2021/06/27 05:40:29;;;;;;;8.38;7.43;;;17.40;99.90;;;;;;5075625;28;20568;-40
2021/06/27 05:42:56;;;;;;;9.77;7.05;;;17.40;99.90;;;;;;5077620;28;20056;-41
2021/06/27 05:45:22;;;;;;;7.95;7.13;;;17.50;99.90;;;;;;5074648;28;21061;-42
2021/06/27 05:47:49;;;;;;;10.65;7.38;;;17.50;99.90;;;;;;5084361;28;20032;-41
2021/06/27 05:50:14;;;;;;;8.57;7.10;;;17.60;99.90;;;;;;5075163;28;20094;-41
2021/06/27 05:52:40;;;;;;;8.60;7.20;;;17.60;99.90;;;;;;5068624;28;20052;-41
2021/06/27 05:55:06;;;;;;;10.77;8.07;;;17.70;99.90;;;;;;5068129;28;20035;-42
2021/06/27 05:57:33;;;;;;;8.48;7.47;;;17.70;99.90;;;;;;5068831;28;20029;-41
2021/06/27 05:59:58;;;;;;;11.00;7.07;;;17.90;99.90;;;;;;5067807;28;20478;-41
2021/06/27 06:02:24;;;;;;;9.15;7.68;;;17.90;99.90;;;;;;5068497;28;20047;-41
2021/06/27 06:04:49;;;;;;;9.70;7.18;;;18.00;99.90;;;;;;5067223;28;20024;-41
2021/06/27 06:07:15;;;;;;;8.07;7.05;;;18.00;99.90;;;;;;5075171;28;20028;-41
2021/06/27 06:09:40;;;;;;;8.50;7.55;;;18.10;99.90;;;;;;5080923;28;20215;-42
2021/06/27 06:12:06;;;;;;;11.88;8.43;;;18.20;99.90;;;;;;5078929;28;20025;-42
2021/06/27 06:14:32;;;;;;;8.90;8.00;;;18.30;99.90;;;;;;5078484;28;20381;-42
2021/06/27 06:16:58;;;;;;;8.82;7.93;;;18.30;99.90;;;;;;5078192;28;20016;-42
2021/06/27 06:19:24;;;;;;;8.68;7.72;;;18.40;99.90;;;;;;5076396;28;20029;-43
2021/06/27 06:21:51;;;;;;;9.35;8.38;;;18.40;99.90;;;;;;5082371;28;20165;-41
2021/06/27 06:24:17;;;;;;;10.43;8.02;;;18.50;99.90;;;;;;5073637;28;20025;-42
2021/06/27 06:26:44;;;;;;;8.70;7.18;;;18.50;99.90;;;;;;5076510;28;20075;-43
2021/06/27 06:29:09;;;;;;;8.68;6.85;;;18.60;99.90;;;;;;5087170;28;20028;-43
2021/06/27 06:31:35;;;;;;;8.15;6.47;;;18.70;99.90;;;;;;5080177;28;20047;-42
2021/06/27 06:34:02;;;;;;;8.35;7.20;;;18.80;99.90;;;;;;5082506;28;20104;-43
2021/06/27 06:36:27;;;;;;;9.00;7.25;;;18.80;99.90;;;;;;5070929;28;20152;-43
2021/06/27 06:38:53;;;;;;;8.95;7.93;;;18.90;99.90;;;;;;5083396;28;20070;-43
2021/06/27 06:41:19;;;;;;;8.13;6.97;;;19.00;99.90;;;;;;5080601;28;20020;-42
2021/06/27 06:43:44;;;;;;;8.13;6.43;;;19.00;99.90;;;;;;5075891;28;20524;-42
2021/06/27 06:46:10;;;;;;;7.93;6.90;;;19.10;99.90;;;;;;5073596;28;20024;-43
2021/06/27 06:48:36;;;;;;;8.40;7.00;;;19.30;99.90;;;;;;5076655;28;20029;-42
2021/06/27 06:51:01;;;;;;;10.52;7.47;;;19.40;99.90;;;;;;5076173;28;20036;-42
2021/06/27 06:53:27;;;;;;;9.07;6.95;;;19.40;99.90;;;;;;5077959;28;20058;-42
2021/06/27 06:55:53;;;;;;;7.60;6.70;;;19.60;99.90;;;;;;5073380;28;20020;-42
2021/06/27 06:58:20;;;;;;;9.13;7.57;;;19.70;99.90;;;;;;5072568;28;20020;-42
2021/06/27 07:00:46;;;;;;;9.50;7.35;;;19.80;99.90;;;;;;5076007;28;20021;-41
2021/06/27 07:03:11;;;;;;;7.70;6.55;;;19.90;99.90;;;;;;5077392;28;20554;-41
2021/06/27 07:05:37;;;;;;;7.50;6.70;;;20.00;99.90;;;;;;5086748;28;20026;-41
2021/06/27 07:08:02;;;;;;;7.72;6.95;;;20.10;99.90;;;;;;5087654;28;20024;-41
2021/06/27 07:10:28;;;;;;;8.60;7.10;;;20.30;99.90;;;;;;5087870;28;20427;-41
2021/06/27 07:12:53;;;;;;;8.25;6.40;;;20.40;99.90;;;;;;5102512;28;20496;-42
2021/06/27 07:15:19;;;;;;;9.38;7.10;;;20.40;99.90;;;;;;5107969;28;20070;-42
2021/06/27 07:17:44;;;;;;;8.85;5.88;;;20.60;99.90;;;;;;5092808;28;20036;-42
2021/06/27 07:20:12;;;;;;;7.07;6.20;;;20.70;99.90;;;;;;5085499;28;20046;-41
2021/06/27 07:22:37;;;;;;;7.13;6.43;;;20.70;99.90;;;;;;5087309;28;20024;-42
2021/06/27 07:25:04;;;;;;;7.18;6.47;;;20.90;99.90;;;;;;5088571;28;20033;-41
2021/06/27 07:27:30;;;;;;;7.90;7.10;;;20.90;99.90;;;;;;5086577;28;20494;-41
2021/06/27 07:29:55;;;;;;;6.43;5.82;;;21.00;99.90;;;;;;5093437;28;20102;-41
2021/06/27 07:32:21;;;;;;;7.75;6.80;;;21.20;99.90;;;;;;5089785;28;20122;-42
2021/06/27 07:34:47;;;;;;;6.70;6.00;;;21.30;99.90;;;;;;5089750;28;20099;-42
2021/06/27 07:37:12;;;;;;;10.65;6.00;;;21.40;99.90;;;;;;5090977;28;20604;-41
2021/06/27 07:39:38;;;;;;;6.90;5.95;;;21.60;99.90;;;;;;5088014;28;20023;-42
2021/06/27 07:42:04;;;;;;;9.13;6.13;;;21.80;99.90;;;;;;5103254;28;20031;-42
2021/06/27 07:44:29;;;;;;;7.60;5.97;;;21.90;99.90;;;;;;5110258;28;20061;-42
2021/06/27 07:46:55;;;;;;;7.20;4.90;;;22.00;99.90;;;;;;5111552;28;20144;-42
2021/06/27 07:49:20;;;;;;;8.98;5.22;;;22.20;99.90;;;;;;5110656;28;20077;-42
2021/06/27 07:51:46;;;;;;;8.43;6.13;;;22.40;99.90;;;;;;5111256;28;20220;-42
2021/06/27 07:54:11;;;;;;;7.20;6.00;;;22.50;99.90;;;;;;5109639;28;20345;-42
2021/06/27 07:56:37;;;;;;;6.15;5.55;;;22.60;99.90;;;;;;5111162;28;20484;-42
2021/06/27 07:59:02;;;;;;;7.53;5.30;;;22.80;99.90;;;;;;5110833;28;20117;-41
2021/06/27 08:01:28;;;;;;;6.22;4.43;;;22.90;99.90;;;;;;5110860;28;20027;-43
2021/06/27 08:03:53;;;;;;;6.57;5.35;;;23.10;99.90;;;;;;5111138;28;20108;-42
2021/06/27 08:06:19;;;;;;;5.35;4.70;;;23.30;99.90;;;;;;5111328;28;20194;-42
2021/06/27 08:08:44;;;;;;;7.88;4.63;;;23.50;99.90;;;;;;5097914;28;20069;-42
2021/06/27 08:11:10;;;;;;;4.65;4.13;;;23.90;98.50;;;;;;5108447;28;20028;-42
2021/06/27 08:13:37;;;;;;;4.40;3.90;;;24.40;96.10;;;;;;5110915;28;20449;-42
2021/06/27 08:16:03;;;;;;;8.23;3.88;;;25.20;95.70;;;;;;5111010;28;20396;-42
2021/06/27 08:18:29;;;;;;;3.92;3.20;;;26.50;94.20;;;;;;5110832;28;20023;-42
2021/06/27 08:20:54;;;;;;;4.53;3.33;;;28.30;87.20;;;;;;5110290;28;20028;-42
2021/06/27 08:23:20;;;;;;;3.63;3.30;;;29.40;78.70;;;;;;5110826;28;20035;-44
2021/06/27 08:25:46;;;;;;;3.67;2.90;;;30.30;73.00;;;;;;5109072;28;20092;-43
2021/06/27 08:28:11;;;;;;;3.78;2.80;;;30.80;68.80;;;;;;5086365;28;20055;-44
2021/06/27 08:30:37;;;;;;;3.60;2.92;;;31.40;65.50;;;;;;5088069;28;20077;-44
2021/06/27 08:33:03;;;;;;;3.03;2.83;;;32.30;61.40;;;;;;5082161;28;20111;-45
2021/06/27 08:35:29;;;;;;;3.55;3.25;;;32.80;59.40;;;;;;5075026;28;20032;-44
2021/06/27 08:37:55;;;;;;;2.92;2.40;;;33.10;57.00;;;;;;5094694;28;20018;-44
2021/06/27 08:40:22;;;;;;;3.42;3.13;;;33.70;56.10;;;;;;5080665;28;20101;-45
2021/06/27 08:42:48;;;;;;;2.75;2.45;;;33.90;53.60;;;;;;5080525;28;20123;-45
2021/06/27 08:45:16;;;;;;;3.45;2.83;;;34.30;53.20;;;;;;5079979;28;20033;-44
2021/06/27 08:47:43;;;;;;;2.80;2.28;;;35.00;52.20;;;;;;5089156;28;20068;-44
2021/06/27 08:50:12;;;;;;;3.22;2.45;;;35.10;51.10;;;;;;5088798;28;20540;-46
2021/06/27 08:52:38;;;;;;;;;;;36.20;46.40;;;;;;5085313;28;20454;-44
2021/06/27 08:55:05;;;;;;;5.30;2.40;;;36.00;45.80;;;;;;5088868;28;19991;-44
2021/06/27 08:57:31;;;;;;;2.28;2.10;;;36.20;48.10;;;;;;5088407;28;20079;-42
2021/06/27 08:59:59;;;;;;;2.60;2.40;;;37.60;44.70;;;;;;5089641;28;20050;-44
2021/06/27 09:02:25;;;;;;;2.47;2.15;;;37.20;44.70;;;;;;5090064;28;20024;-45
2021/06/27 09:04:50;;;;;;;3.00;2.80;;;37.70;43.50;;;;;;5089311;28;20181;-43
2021/06/27 09:07:32;;;;;;;2.95;2.70;;;37.50;43.70;;;;;;5081610;28;20036;-44
2021/06/27 09:10:04;;;;;;;2.97;2.67;;;37.60;43.50;;;;;;5090757;28;20118;-43
2021/06/27 09:12:45;;;;;;;3.75;3.45;;;37.40;44.60;;;;;;5089547;28;20466;-43
2021/06/27 09:15:11;;;;;;;3.88;3.15;;;37.00;43.50;;;;;;5090671;28;20024;-43
2021/06/27 09:17:42;;;;;;;3.30;3.00;;;37.00;43.80;;;;;;5090440;28;20017;-45
2021/06/27 09:20:09;;;;;;;4.90;3.00;;;37.60;42.90;;;;;;5080296;28;20039;-43
2021/06/27 09:22:43;;;;;;;8.98;3.50;;;37.50;42.60;;;;;;5094420;28;20050;-46
2021/06/27 09:25:20;;;;;;;6.90;3.38;;;38.00;42.20;;;;;;5072737;28;20028;-43
2021/06/27 09:27:56;;;;;;;3.50;3.03;;;38.00;42.10;;;;;;5075185;28;20373;-45
2021/06/27 09:30:22;;;;;;;3.45;3.25;;;39.00;41.00;;;;;;5078235;28;20464;-43
2021/06/27 09:32:58;;;;;;;3.88;3.58;;;38.90;40.90;;;;;;5090086;28;20055;-43
2021/06/27 09:35:46;;;;;;;4.60;4.20;;;39.20;39.40;;;;;;5068191;28;20031;-45
2021/06/27 09:38:31;;;;;;;;;;;38.40;40.50;;;;;;5070142;28;20440;-44
2021/06/27 09:41:00;;;;;;;4.85;3.17;;;38.80;38.60;;;;;;5093473;28;19908;-44
2021/06/27 09:43:29;;;;;;;3.05;2.85;;;38.70;39.70;;;;;;5108558;28;20030;-44
2021/06/27 09:46:00;;;;;;;3.50;2.55;;;38.60;40.20;;;;;;5109607;28;20519;-43
2021/06/27 09:48:27;;;;;;;2.50;2.30;;;38.50;36.70;;;;;;5110026;28;20039;-43
2021/06/27 09:50:54;;;;;;;2.50;2.30;;;38.50;36.90;;;;;;5109165;28;20432;-44
2021/06/27 09:53:38;;;;;;;4.22;2.65;;;38.10;39.80;;;;;;5110038;28;20111;-46
2021/06/27 09:56:06;;;;;;;2.70;2.50;;;38.40;38.00;;;;;;5110207;28;20039;-45
2021/06/27 09:58:31;;;;;;;3.40;2.25;;;38.20;39.00;;;;;;5109760;28;20094;-45
2021/06/27 10:00:57;;;;;;;3.38;2.70;;;37.20;40.00;;;;;;5109148;28;20472;-43
2021/06/27 10:03:43;;;;;;;4.63;2.83;;;36.90;40.30;;;;;;5109979;28;20389;-43
2021/06/27 10:06:09;;;;;;;2.95;2.60;;;37.00;41.00;;;;;;5108984;28;20525;-46
2021/06/27 10:08:35;;;;;;;3.20;2.90;;;37.80;40.40;;;;;;5109972;28;20111;-46
2021/06/27 10:11:15;;;;;;;3.13;2.75;;;38.40;39.30;;;;;;5096593;28;20111;-47
2021/06/27 10:13:42;;;;;;;4.97;3.15;;;38.00;38.60;;;;;;5099272;28;20050;-44
2021/06/27 10:16:10;;;;;;;3.13;2.90;;;37.60;40.70;;;;;;5108110;28;20022;-47
2021/06/27 10:18:36;;;;;;;3.25;2.90;;;37.20;39.50;;;;;;5109566;28;20028;-44
2021/06/27 10:21:01;;;;;;;3.38;3.08;;;36.30;40.00;;;;;;5103427;28;20550;-45
2021/06/27 10:23:27;;;;;;;3.47;2.80;;;35.50;40.40;;;;;;5101051;28;20028;-45
2021/06/27 10:25:53;;;;;;;3.30;3.00;;;35.10;42.40;;;;;;5109617;28;20031;-44
2021/06/27 10:28:20;;;;;;;4.65;3.30;;;34.80;42.10;;;;;;5109918;28;20107;-44
2021/06/27 10:30:45;;;;;;;4.53;3.53;;;34.40;42.60;;;;;;5100985;28;20027;-44
2021/06/27 10:33:11;;;;;;;3.30;3.00;;;33.70;46.00;;;;;;5100850;28;20042;-44
2021/06/27 10:35:37;;;;;;;3.50;3.20;;;33.40;45.30;;;;;;5109721;28;20085;-44
2021/06/27 10:38:07;;;;;;;4.97;4.18;;;33.70;46.50;;;;;;5090704;28;20023;-44
2021/06/27 10:40:53;;;;;;;7.00;5.63;;;34.00;45.20;;;;;;5101698;28;20526;-44
2021/06/27 10:43:19;;;;;;;5.00;4.32;;;34.80;44.50;;;;;;5109674;28;20027;-45
2021/06/27 10:45:48;;;;;;;4.38;3.13;;;35.10;43.30;;;;;;5109843;28;20039;-45
2021/06/27 10:48:32;;;;;;;8.93;6.70;;;35.50;44.60;;;;;;5109448;28;20030;-44
2021/06/27 10:50:58;;;;;;;5.50;4.90;;;36.10;42.20;;;;;;5101565;28;20052;-46
2021/06/27 10:53:24;;;;;;;4.43;3.45;;;37.00;42.20;;;;;;5085900;28;20028;-44
2021/06/27 10:55:50;;;;;;;18.40;11.57;;;37.30;42.60;;;;;;5089444;28;20020;-44
2021/06/27 10:58:33;;;;;;;4.60;4.15;;;37.20;41.90;;;;;;5090296;28;20020;-45
2021/06/27 11:01:02;;;;;;;3.28;2.97;;;37.70;42.20;;;;;;5091233;28;20560;-44
2021/06/27 11:03:27;;;;;;;3.22;2.75;;;37.00;41.40;;;;;;5092712;28;20028;-44
2021/06/27 11:05:59;;;;;;;8.25;6.85;;;35.20;41.90;;;;;;5092944;28;20107;-44
2021/06/27 11:08:37;;;;;;;7.78;5.28;;;34.70;43.70;;;;;;5092628;28;20489;-44
2021/06/27 11:11:07;;;;;;;9.45;6.10;;;35.10;43.00;;;;;;5091147;28;20115;-44
2021/06/27 11:13:33;;;;;;;13.55;10.20;;;35.50;44.40;;;;;;5092170;28;20028;-44
2021/06/27 11:16:11;;;;;;;6.30;4.65;;;35.60;43.80;;;;;;5085020;28;20053;-44
2021/06/27 11:18:42;;;;;;;17.60;11.30;;;36.00;42.70;;;;;;5100191;28;20031;-44
2021/06/27 11:21:18;;;;;;;7.22;4.07;;;36.90;42.80;;;;;;5072424;28;20036;-44
2021/06/27 11:23:47;;;;;;;6.47;3.70;;;37.40;39.80;;;;;;5098175;28;20028;-44
2021/06/27 11:26:48;;;;;;;5.32;4.25;;;38.20;39.20;;;;;;5090917;28;20078;-44
2021/06/27 11:29:25;;;;;;;8.55;6.57;;;38.20;39.70;;;;;;5090894;28;20028;-48
2021/06/27 11:32:13;;;;;;;9.20;5.60;;;38.20;40.30;;;;;;5096890;28;20051;-44
2021/06/27 11:34:51;;;;;;;4.22;3.83;;;38.50;39.90;;;;;;5099741;28;20043;-44
2021/06/27 11:37:17;;;;;;;3.60;3.30;;;38.90;38.40;;;;;;5112161;28;20016;-44
2021/06/27 11:39:53;;;;;;;9.20;5.70;;;39.00;38.70;;;;;;5078246;28;20086;-44
2021/06/27 11:42:22;;;;;;;7.10;5.53;;;38.50;37.90;;;;;;5085800;28;20028;-44
2021/06/27 11:44:48;;;;;;;4.03;2.55;;;37.80;39.20;;;;;;5077560;28;21517;-45
2021/06/27 11:47:21;;;;;;;3.00;2.70;;;37.80;40.40;;;;;;5078471;28;20028;-45
2021/06/27 11:49:47;;;;;;;2.70;2.50;;;37.80;38.80;;;;;;5078069;28;20021;-44
2021/06/27 11:52:13;;;;;;;3.53;3.17;;;39.60;37.30;;;;;;5077976;28;20032;-44
2021/06/27 11:54:39;;;;;;;4.07;2.00;;;39.30;37.90;;;;;;5076102;28;20130;-45
2021/06/27 11:57:07;;;;;;;5.20;3.15;;;38.80;36.40;;;;;;5080660;28;20035;-46
2021/06/27 11:59:41;;;;;;;2.87;2.00;;;38.10;37.70;;;;;;5079348;28;20516;-44
2021/06/27 12:02:24;;;;;;;5.07;3.70;;;36.80;37.20;;;;;;5079937;28;20104;-45
2021/06/27 12:04:53;;;;;;;2.63;2.42;;;35.30;40.70;;;;;;5081183;28;20047;-44
2021/06/27 12:07:29;;;;;;;2.45;2.25;;;35.00;41.70;;;;;;5076306;28;20115;-44
2021/06/27 12:09:56;;;;;;;2.42;2.15;;;34.60;42.70;;;;;;5082367;28;20020;-45
2021/06/27 12:12:32;;;;;;;3.00;2.60;;;34.20;43.50;;;;;;5079674;28;20071;-44
2021/06/27 12:14:58;;;;;;;2.90;2.35;;;34.20;44.90;;;;;;5080061;28;20108;-44
2021/06/27 12:17:26;;;;;;;5.05;3.88;;;34.30;41.70;;;;;;5076823;28;20432;-45
2021/06/27 12:19:53;;;;;;;5.18;2.85;;;34.20;42.70;;;;;;5080653;28;20023;-45
2021/06/27 12:22:19;;;;;;;3.20;1.80;;;33.90;42.10;;;;;;5080369;28;20044;-45
2021/06/27 12:24:45;;;;;;;3.70;2.67;;;33.60;42.10;;;;;;5082125;28;20672;-45
2021/06/27 12:27:12;;;;;;;6.28;2.80;;;33.50;42.20;;;;;;5082901;28;20025;-44
2021/06/27 12:29:50;;;;;;;2.30;1.55;;;33.40;42.30;;;;;;5083886;28;20016;-46
2021/06/27 12:32:16;;;;;;;3.35;2.65;;;33.30;41.80;;;;;;5081283;28;20072;-45
2021/06/27 12:34:42;;;;;;;2.30;2.10;;;33.30;41.80;;;;;;5096732;28;20033;-44
2021/06/27 12:37:07;;;;;;;4.45;3.78;;;33.30;42.60;;;;;;5082339;28;20017;-44
2021/06/27 12:39:36;;;;;;;6.43;3.45;;;32.70;42.80;;;;;;5079864;28;20028;-45
2021/06/27 12:42:14;;;;;;;3.47;1.27;;;32.50;42.50;;;;;;5083813;28;20036;-44
2021/06/27 12:44:40;;;;;;;1.45;1.35;;;32.40;44.60;;;;;;5078518;28;20024;-44
2021/06/27 12:47:05;;;;;;;1.92;1.40;;;32.20;44.10;;;;;;5080016;28;20062;-46